sensor_id;sensor_type;location;lat;lon;timestamp;temperature;humidity
5210;DHT22;2624;48.048;11.706;2023-04-25T00:03:01;8.30;99.90
5210;DHT22;2624;48.048;11.706;2023-04-25T00:08:05;8.20;99.90
5210;DHT22;2624;48.048;11.706;2023-04-25T00:13:06;8.20;99.90
5210;DHT22;2624;48.048;11.706;2023-04-25T00:18:08;8.20;99.90
5210;DHT22;2624;48.048;11.706;2023-04-25T00:23:13;8.30;99.90
5210;DHT22;2624;48.048;11.706;2023-04-25T00:28:18;8.30;99.90
5210;DHT22;2624;48.048;11.706;2023-04-25T00:33:19;8.40;99.90
5210;DHT22;2624;48.048;11.706;2023-04-25T00:38:22;8.20;99.90
5210;DHT22;2624;48.048;11.706;2023-04-25T00:43:25;8.10;99.90
5210;DHT22;2624;48.048;11.706;2023-04-25T00:48:27;8.30;99.90
5210;DHT22;2624;48.048;11.706;2023-04-25T00:53:30;8.10;99.90
5210;DHT22;2624;48.048;11.706;2023-04-25T00:58:33;8.10;99.90
5210;DHT22;2624;48.048;11.706;2023-04-25T01:03:37;8.20;99.90
5210;DHT22;2624;48.048;11.706;2023-04-25T01:08:42;8.20;99.90
5210;DHT22;2624;48.048;11.706;2023-04-25T01:13:44;8.20;99.90
5210;DHT22;2624;48.048;11.706;2023-04-25T01:18:46;8.10;99.90
5210;DHT22;2624;48.048;11.706;2023-04-25T01:23:50;8.20;99.90
5210;DHT22;2624;48.048;11.706;2023-04-25T01:28:52;8.20;99.90
5210;DHT22;2624;48.048;11.706;2023-04-25T01:33:53;8.00;99.90
5210;DHT22;2624;48.048;11.706;2023-04-25T01:38:56;8.10;99.90
5210;DHT22;2624;48.048;11.706;2023-04-25T01:43:58;8.00;99.90
5210;DHT22;2624;48.048;11.706;2023-04-25T01:49:00;8.10;99.90
5210;DHT22;2624;48.048;11.706;2023-04-25T01:54:04;8.20;99.90
5210;DHT22;2624;48.048;11.706;2023-04-25T01:59:06;8.10;99.90
5210;DHT22;2624;48.048;11.706;2023-04-25T02:04:07;8.00;99.90
5210;DHT22;2624;48.048;11.706;2023-04-25T02:09:11;8.20;99.90
5210;DHT22;2624;48.048;11.706;2023-04-25T02:14:12;7.80;99.90
5210;DHT22;2624;48.048;11.706;2023-04-25T02:19:14;7.40;99.90
5210;DHT22;2624;48.048;11.706;2023-04-25T02:24:17;7.50;99.90
5210;DHT22;2624;48.048;11.706;2023-04-25T02:29:19;7.60;99.90
5210;DHT22;2624;48.048;11.706;2023-04-25T02:34:21;7.90;99.90
5210;DHT22;2624;48.048;11.706;2023-04-25T02:39:24;7.80;99.90
5210;DHT22;2624;48.048;11.706;2023-04-25T02:44:27;7.80;99.90
5210;DHT22;2624;48.048;11.706;2023-04-25T02:49:29;7.80;99.90
5210;DHT22;2624;48.048;11.706;2023-04-25T02:54:32;7.60;99.90
5210;DHT22;2624;48.048;11.706;2023-04-25T02:59:34;7.80;99.90
5210;DHT22;2624;48.048;11.706;2023-04-25T03:04:36;7.90;99.90
5210;DHT22;2624;48.048;11.706;2023-04-25T03:09:39;7.80;99.90
5210;DHT22;2624;48.048;11.706;2023-04-25T03:14:41;7.70;99.90
5210;DHT22;2624;48.048;11.706;2023-04-25T03:19:42;7.80;99.90
5210;DHT22;2624;48.048;11.706;2023-04-25T03:24:45;7.70;99.90
5210;DHT22;2624;48.048;11.706;2023-04-25T03:29:47;7.80;99.90
5210;DHT22;2624;48.048;11.706;2023-04-25T03:34:49;8.10;99.90
5210;DHT22;2624;48.048;11.706;2023-04-25T03:39:52;8.00;99.90
5210;DHT22;2624;48.048;11.706;2023-04-25T03:44:54;7.90;99.90
5210;DHT22;2624;48.048;11.706;2023-04-25T03:49:55;7.60;99.90
5210;DHT22;2624;48.048;11.706;2023-04-25T03:54:58;7.60;99.90
5210;DHT22;2624;48.048;11.706;2023-04-25T04:00:00;7.50;99.90
5210;DHT22;2624;48.048;11.706;2023-04-25T04:05:04;7.20;99.90
5210;DHT22;2624;48.048;11.706;2023-04-25T04:10:09;7.20;99.90
5210;DHT22;2624;48.048;11.706;2023-04-25T04:15:11;7.00;99.90
5210;DHT22;2624;48.048;11.706;2023-04-25T04:20:13;7.20;99.90
5210;DHT22;2624;48.048;11.706;2023-04-25T04:25:16;7.40;99.90
5210;DHT22;2624;48.048;11.706;2023-04-25T04:30:18;7.40;99.90
5210;DHT22;2624;48.048;11.706;2023-04-25T04:35:20;7.40;99.90
5210;DHT22;2624;48.048;11.706;2023-04-25T04:40:23;7.50;99.90
5210;DHT22;2624;48.048;11.706;2023-04-25T04:45:26;7.40;99.90
5210;DHT22;2624;48.048;11.706;2023-04-25T04:50:28;7.50;99.90
5210;DHT22;2624;48.048;11.706;2023-04-25T04:55:31;7.40;99.90
5210;DHT22;2624;48.048;11.706;2023-04-25T05:00:33;7.50;99.90
5210;DHT22;2624;48.048;11.706;2023-04-25T05:05:35;7.20;99.90
5210;DHT22;2624;48.048;11.706;2023-04-25T05:10:41;7.30;99.90
5210;DHT22;2624;48.048;11.706;2023-04-25T05:15:43;7.10;99.90
5210;DHT22;2624;48.048;11.706;2023-04-25T05:20:45;7.40;99.90
5210;DHT22;2624;48.048;11.706;2023-04-25T05:25:48;7.40;99.90
5210;DHT22;2624;48.048;11.706;2023-04-25T05:30:50;7.40;99.90
5210;DHT22;2624;48.048;11.706;2023-04-25T05:35:52;7.40;99.90
5210;DHT22;2624;48.048;11.706;2023-04-25T05:40:55;7.40;99.90
5210;DHT22;2624;48.048;11.706;2023-04-25T05:45:57;7.10;99.90
5210;DHT22;2624;48.048;11.706;2023-04-25T05:50:59;7.30;99.90
5210;DHT22;2624;48.048;11.706;2023-04-25T05:56:02;7.30;99.90
5210;DHT22;2624;48.048;11.706;2023-04-25T06:01:04;7.20;99.90
5210;DHT22;2624;48.048;11.706;2023-04-25T06:06:06;7.40;99.90
5210;DHT22;2624;48.048;11.706;2023-04-25T06:11:09;7.30;99.90
5210;DHT22;2624;48.048;11.706;2023-04-25T06:16:11;7.30;99.90
5210;DHT22;2624;48.048;11.706;2023-04-25T06:21:13;7.40;99.90
5210;DHT22;2624;48.048;11.706;2023-04-25T06:26:16;7.60;99.90
5210;DHT22;2624;48.048;11.706;2023-04-25T06:31:17;7.60;99.90
5210;DHT22;2624;48.048;11.706;2023-04-25T06:36:19;7.70;99.90
5210;DHT22;2624;48.048;11.706;2023-04-25T06:41:26;7.60;99.90
5210;DHT22;2624;48.048;11.706;2023-04-25T06:46:28;7.70;99.90
5210;DHT22;2624;48.048;11.706;2023-04-25T06:51:30;7.60;99.90
5210;DHT22;2624;48.048;11.706;2023-04-25T06:56:33;7.60;99.90
5210;DHT22;2624;48.048;11.706;2023-04-25T07:01:35;7.70;99.90
5210;DHT22;2624;48.048;11.706;2023-04-25T07:06:37;7.70;99.90
5210;DHT22;2624;48.048;11.706;2023-04-25T07:11:44;7.60;99.90
5210;DHT22;2624;48.048;11.706;2023-04-25T07:16:46;7.70;99.90
5210;DHT22;2624;48.048;11.706;2023-04-25T07:21:47;7.70;99.90
5210;DHT22;2624;48.048;11.706;2023-04-25T07:26:50;7.70;99.90
5210;DHT22;2624;48.048;11.706;2023-04-25T07:31:52;7.80;99.90
5210;DHT22;2624;48.048;11.706;2023-04-25T07:36:54;7.70;99.90
5210;DHT22;2624;48.048;11.706;2023-04-25T07:41:57;7.70;99.90
5210;DHT22;2624;48.048;11.706;2023-04-25T07:47:00;7.80;99.90
5210;DHT22;2624;48.048;11.706;2023-04-25T07:52:03;7.80;99.90
5210;DHT22;2624;48.048;11.706;2023-04-25T07:57:07;7.80;99.90
5210;DHT22;2624;48.048;11.706;2023-04-25T08:02:09;8.00;99.90
5210;DHT22;2624;48.048;11.706;2023-04-25T08:07:11;8.00;99.90
5210;DHT22;2624;48.048;11.706;2023-04-25T08:12:14;8.20;99.90
5210;DHT22;2624;48.048;11.706;2023-04-25T08:17:16;8.20;99.90
5210;DHT22;2624;48.048;11.706;2023-04-25T08:22:18;8.40;99.90
5210;DHT22;2624;48.048;11.706;2023-04-25T08:27:21;8.50;99.90
5210;DHT22;2624;48.048;11.706;2023-04-25T08:32:24;8.40;99.90
5210;DHT22;2624;48.048;11.706;2023-04-25T08:37:26;8.60;99.90
5210;DHT22;2624;48.048;11.706;2023-04-25T08:42:31;8.70;99.90
5210;DHT22;2624;48.048;11.706;2023-04-25T08:47:35;8.80;99.90
5210;DHT22;2624;48.048;11.706;2023-04-25T08:52:44;8.70;99.90
5210;DHT22;2624;48.048;11.706;2023-04-25T08:57:47;8.70;99.90
5210;DHT22;2624;48.048;11.706;2023-04-25T09:02:49;8.70;99.90
5210;DHT22;2624;48.048;11.706;2023-04-25T09:07:51;8.80;99.90
5210;DHT22;2624;48.048;11.706;2023-04-25T09:13:05;9.00;99.90
5210;DHT22;2624;48.048;11.706;2023-04-25T09:18:07;9.20;99.90
5210;DHT22;2624;48.048;11.706;2023-04-25T09:23:08;9.30;99.90
5210;DHT22;2624;48.048;11.706;2023-04-25T09:28:12;9.40;99.90
5210;DHT22;2624;48.048;11.706;2023-04-25T09:33:13;9.10;99.90
5210;DHT22;2624;48.048;11.706;2023-04-25T09:38:15;9.20;99.90
5210;DHT22;2624;48.048;11.706;2023-04-25T09:43:20;9.30;99.90
5210;DHT22;2624;48.048;11.706;2023-04-25T09:48:24;9.60;99.90
5210;DHT22;2624;48.048;11.706;2023-04-25T09:53:26;9.40;99.90
5210;DHT22;2624;48.048;11.706;2023-04-25T09:58:29;9.40;99.90
5210;DHT22;2624;48.048;11.706;2023-04-25T10:03:33;9.40;99.90
5210;DHT22;2624;48.048;11.706;2023-04-25T10:08:36;9.60;99.90
5210;DHT22;2624;48.048;11.706;2023-04-25T10:13:40;10.00;99.90
5210;DHT22;2624;48.048;11.706;2023-04-25T10:18:42;10.10;99.90
5210;DHT22;2624;48.048;11.706;2023-04-25T10:23:44;9.80;99.90
5210;DHT22;2624;48.048;11.706;2023-04-25T10:28:58;9.80;99.90
5210;DHT22;2624;48.048;11.706;2023-04-25T10:34:00;9.80;99.90
5210;DHT22;2624;48.048;11.706;2023-04-25T10:39:04;9.90;99.90
5210;DHT22;2624;48.048;11.706;2023-04-25T10:44:09;9.90;99.90
5210;DHT22;2624;48.048;11.706;2023-04-25T10:49:28;10.10;99.90
5210;DHT22;2624;48.048;11.706;2023-04-25T10:54:30;10.30;99.90
5210;DHT22;2624;48.048;11.706;2023-04-25T10:59:34;10.30;99.90
5210;DHT22;2624;48.048;11.706;2023-04-25T11:04:35;10.40;99.90
5210;DHT22;2624;48.048;11.706;2023-04-25T11:09:40;10.20;99.90
5210;DHT22;2624;48.048;11.706;2023-04-25T11:14:43;10.10;99.90
5210;DHT22;2624;48.048;11.706;2023-04-25T11:19:48;10.10;99.90
5210;DHT22;2624;48.048;11.706;2023-04-25T11:24:50;10.10;99.90
5210;DHT22;2624;48.048;11.706;2023-04-25T11:29:53;10.10;99.90
5210;DHT22;2624;48.048;11.706;2023-04-25T11:34:55;9.90;99.90
5210;DHT22;2624;48.048;11.706;2023-04-25T11:39:57;9.90;99.90
5210;DHT22;2624;48.048;11.706;2023-04-25T11:45:00;9.80;99.90
5210;DHT22;2624;48.048;11.706;2023-04-25T11:50:03;9.50;99.90
5210;DHT22;2624;48.048;11.706;2023-04-25T11:55:07;9.50;99.90
5210;DHT22;2624;48.048;11.706;2023-04-25T12:00:13;9.30;99.90
5210;DHT22;2624;48.048;11.706;2023-04-25T12:05:15;9.30;99.90
5210;DHT22;2624;48.048;11.706;2023-04-25T12:10:18;9.30;99.90
5210;DHT22;2624;48.048;11.706;2023-04-25T12:15:25;9.00;99.90
5210;DHT22;2624;48.048;11.706;2023-04-25T12:20:26;9.30;99.90
5210;DHT22;2624;48.048;11.706;2023-04-25T12:25:35;9.10;99.90
5210;DHT22;2624;48.048;11.706;2023-04-25T12:31:04;9.20;99.90
5210;DHT22;2624;48.048;11.706;2023-04-25T12:36:06;9.10;99.90
5210;DHT22;2624;48.048;11.706;2023-04-25T12:41:11;9.10;99.90
5210;DHT22;2624;48.048;11.706;2023-04-25T12:46:15;9.00;99.90
5210;DHT22;2624;48.048;11.706;2023-04-25T12:51:16;9.20;99.90
5210;DHT22;2624;48.048;11.706;2023-04-25T12:56:18;9.20;99.90
5210;DHT22;2624;48.048;11.706;2023-04-25T13:01:22;9.30;99.90
5210;DHT22;2624;48.048;11.706;2023-04-25T13:06:24;9.30;99.90
5210;DHT22;2624;48.048;11.706;2023-04-25T13:11:26;9.30;99.90
5210;DHT22;2624;48.048;11.706;2023-04-25T13:16:30;9.30;99.90
5210;DHT22;2624;48.048;11.706;2023-04-25T13:21:31;9.30;99.90
5210;DHT22;2624;48.048;11.706;2023-04-25T13:26:33;9.30;99.90
5210;DHT22;2624;48.048;11.706;2023-04-25T13:31:36;9.30;99.90
5210;DHT22;2624;48.048;11.706;2023-04-25T13:36:38;9.30;99.90
5210;DHT22;2624;48.048;11.706;2023-04-25T13:41:40;9.40;99.90
5210;DHT22;2624;48.048;11.706;2023-04-25T13:46:43;9.40;99.90
5210;DHT22;2624;48.048;11.706;2023-04-25T13:51:46;9.30;99.90
5210;DHT22;2624;48.048;11.706;2023-04-25T13:56:49;9.30;99.90
5210;DHT22;2624;48.048;11.706;2023-04-25T14:01:52;9.40;99.90
5210;DHT22;2624;48.048;11.706;2023-04-25T14:06:54;9.40;99.90
5210;DHT22;2624;48.048;11.706;2023-04-25T14:11:55;9.30;99.90
5210;DHT22;2624;48.048;11.706;2023-04-25T14:17:00;9.30;99.90
5210;DHT22;2624;48.048;11.706;2023-04-25T14:22:01;9.20;99.90
5210;DHT22;2624;48.048;11.706;2023-04-25T14:27:03;9.20;99.90
5210;DHT22;2624;48.048;11.706;2023-04-25T14:32:07;9.20;99.90
5210;DHT22;2624;48.048;11.706;2023-04-25T14:37:09;9.20;99.90
5210;DHT22;2624;48.048;11.706;2023-04-25T14:42:10;9.20;99.90
5210;DHT22;2624;48.048;11.706;2023-04-25T14:47:14;9.20;99.90
5210;DHT22;2624;48.048;11.706;2023-04-25T14:52:16;9.10;99.90
5210;DHT22;2624;48.048;11.706;2023-04-25T14:57:17;9.10;99.90
5210;DHT22;2624;48.048;11.706;2023-04-25T15:02:20;9.20;99.90
5210;DHT22;2624;48.048;11.706;2023-04-25T15:07:22;9.10;99.90
5210;DHT22;2624;48.048;11.706;2023-04-25T15:12:24;9.10;99.90
5210;DHT22;2624;48.048;11.706;2023-04-25T15:17:28;9.20;99.90
5210;DHT22;2624;48.048;11.706;2023-04-25T15:22:31;9.20;99.90
5210;DHT22;2624;48.048;11.706;2023-04-25T15:27:33;9.10;99.90
5210;DHT22;2624;48.048;11.706;2023-04-25T15:32:39;9.20;99.90
5210;DHT22;2624;48.048;11.706;2023-04-25T15:37:41;9.10;99.90
5210;DHT22;2624;48.048;11.706;2023-04-25T15:42:45;9.10;99.90
5210;DHT22;2624;48.048;11.706;2023-04-25T15:47:49;9.10;99.90
5210;DHT22;2624;48.048;11.706;2023-04-25T15:52:52;9.10;99.90
5210;DHT22;2624;48.048;11.706;2023-04-25T15:57:54;9.10;99.90
5210;DHT22;2624;48.048;11.706;2023-04-25T16:02:57;9.10;99.90
5210;DHT22;2624;48.048;11.706;2023-04-25T16:07:58;9.10;99.90
5210;DHT22;2624;48.048;11.706;2023-04-25T16:13:00;9.00;99.90
5210;DHT22;2624;48.048;11.706;2023-04-25T16:18:04;9.00;99.90
5210;DHT22;2624;48.048;11.706;2023-04-25T16:23:08;8.90;99.90
5210;DHT22;2624;48.048;11.706;2023-04-25T16:28:09;8.90;99.90
5210;DHT22;2624;48.048;11.706;2023-04-25T16:33:13;9.00;99.90
5210;DHT22;2624;48.048;11.706;2023-04-25T16:38:14;8.90;99.90
5210;DHT22;2624;48.048;11.706;2023-04-25T16:43:16;8.90;99.90
5210;DHT22;2624;48.048;11.706;2023-04-25T16:48:21;8.90;99.90
5210;DHT22;2624;48.048;11.706;2023-04-25T16:53:23;8.90;99.90
5210;DHT22;2624;48.048;11.706;2023-04-25T16:58:25;8.90;99.90
5210;DHT22;2624;48.048;11.706;2023-04-25T17:03:29;8.90;99.90
5210;DHT22;2624;48.048;11.706;2023-04-25T17:08:31;8.80;99.90
5210;DHT22;2624;48.048;11.706;2023-04-25T17:13:33;8.80;99.90
5210;DHT22;2624;48.048;11.706;2023-04-25T17:18:37;8.80;99.90
5210;DHT22;2624;48.048;11.706;2023-04-25T17:23:39;8.80;99.90
5210;DHT22;2624;48.048;11.706;2023-04-25T17:28:44;8.70;99.90
5210;DHT22;2624;48.048;11.706;2023-04-25T17:33:49;8.70;99.90
5210;DHT22;2624;48.048;11.706;2023-04-25T17:38:51;8.60;99.90
5210;DHT22;2624;48.048;11.706;2023-04-25T17:43:53;8.60;99.90
5210;DHT22;2624;48.048;11.706;2023-04-25T17:48:57;8.60;99.90
5210;DHT22;2624;48.048;11.706;2023-04-25T17:53:58;8.60;99.90
5210;DHT22;2624;48.048;11.706;2023-04-25T17:59:00;8.60;99.90
5210;DHT22;2624;48.048;11.706;2023-04-25T18:04:03;8.60;99.90
5210;DHT22;2624;48.048;11.706;2023-04-25T18:09:05;8.50;99.90
5210;DHT22;2624;48.048;11.706;2023-04-25T18:14:15;8.50;99.90
5210;DHT22;2624;48.048;11.706;2023-04-25T18:19:18;8.40;99.90
5210;DHT22;2624;48.048;11.706;2023-04-25T18:24:22;8.40;99.90
5210;DHT22;2624;48.048;11.706;2023-04-25T18:29:26;8.40;99.90
5210;DHT22;2624;48.048;11.706;2023-04-25T18:34:30;8.40;99.90
5210;DHT22;2624;48.048;11.706;2023-04-25T18:39:31;8.40;99.90
5210;DHT22;2624;48.048;11.706;2023-04-25T18:44:33;8.50;99.90
5210;DHT22;2624;48.048;11.706;2023-04-25T18:49:40;8.50;99.90
5210;DHT22;2624;48.048;11.706;2023-04-25T18:54:42;8.50;99.90
5210;DHT22;2624;48.048;11.706;2023-04-25T18:59:45;8.40;99.90
5210;DHT22;2624;48.048;11.706;2023-04-25T19:04:48;8.40;99.90
5210;DHT22;2624;48.048;11.706;2023-04-25T19:09:50;8.40;99.90
5210;DHT22;2624;48.048;11.706;2023-04-25T19:14:52;8.40;99.90
5210;DHT22;2624;48.048;11.706;2023-04-25T19:19:56;8.40;99.90
5210;DHT22;2624;48.048;11.706;2023-04-25T19:24:57;8.30;99.90
5210;DHT22;2624;48.048;11.706;2023-04-25T19:29:59;8.10;99.90
5210;DHT22;2624;48.048;11.706;2023-04-25T19:35:10;7.80;99.90
5210;DHT22;2624;48.048;11.706;2023-04-25T19:40:13;7.90;99.90
5210;DHT22;2624;48.048;11.706;2023-04-25T19:45:16;7.60;99.90
5210;DHT22;2624;48.048;11.706;2023-04-25T19:50:19;7.80;99.90
5210;DHT22;2624;48.048;11.706;2023-04-25T19:55:21;7.60;99.90
5210;DHT22;2624;48.048;11.706;2023-04-25T20:00:23;7.50;99.90
5210;DHT22;2624;48.048;11.706;2023-04-25T20:05:26;7.70;99.90
5210;DHT22;2624;48.048;11.706;2023-04-25T20:10:28;7.60;99.90
5210;DHT22;2624;48.048;11.706;2023-04-25T20:15:30;7.60;99.90
5210;DHT22;2624;48.048;11.706;2023-04-25T20:20:33;7.50;99.90
5210;DHT22;2624;48.048;11.706;2023-04-25T20:25:36;7.10;99.90
5210;DHT22;2624;48.048;11.706;2023-04-25T20:30:38;7.10;99.90
5210;DHT22;2624;48.048;11.706;2023-04-25T20:35:41;7.00;99.90
5210;DHT22;2624;48.048;11.706;2023-04-25T20:40:43;7.00;99.90
5210;DHT22;2624;48.048;11.706;2023-04-25T20:45:45;7.00;99.90
5210;DHT22;2624;48.048;11.706;2023-04-25T20:50:48;7.20;99.90
5210;DHT22;2624;48.048;11.706;2023-04-25T20:55:51;7.10;99.90
5210;DHT22;2624;48.048;11.706;2023-04-25T21:00:53;7.30;99.90
5210;DHT22;2624;48.048;11.706;2023-04-25T21:05:57;7.40;99.90
5210;DHT22;2624;48.048;11.706;2023-04-25T21:10:58;7.10;99.90
5210;DHT22;2624;48.048;11.706;2023-04-25T21:16:00;6.80;99.90
5210;DHT22;2624;48.048;11.706;2023-04-25T21:21:04;6.70;99.90
5210;DHT22;2624;48.048;11.706;2023-04-25T21:26:07;6.90;99.90
5210;DHT22;2624;48.048;11.706;2023-04-25T21:31:08;7.00;99.90
5210;DHT22;2624;48.048;11.706;2023-04-25T21:36:12;7.20;99.90
5210;DHT22;2624;48.048;11.706;2023-04-25T21:41:13;7.20;99.90
5210;DHT22;2624;48.048;11.706;2023-04-25T21:46:15;7.20;99.90
5210;DHT22;2624;48.048;11.706;2023-04-25T21:51:18;7.10;99.90
5210;DHT22;2624;48.048;11.706;2023-04-25T21:56:20;7.10;99.90
5210;DHT22;2624;48.048;11.706;2023-04-25T22:01:22;7.20;99.90
5210;DHT22;2624;48.048;11.706;2023-04-25T22:06:26;7.00;99.90
5210;DHT22;2624;48.048;11.706;2023-04-25T22:11:28;7.10;99.90
5210;DHT22;2624;48.048;11.706;2023-04-25T22:16:30;6.80;99.90
5210;DHT22;2624;48.048;11.706;2023-04-25T22:21:33;6.90;99.90
5210;DHT22;2624;48.048;11.706;2023-04-25T22:26:35;7.00;99.90
5210;DHT22;2624;48.048;11.706;2023-04-25T22:31:37;7.00;99.90
5210;DHT22;2624;48.048;11.706;2023-04-25T22:36:40;7.10;99.90
5210;DHT22;2624;48.048;11.706;2023-04-25T22:41:41;7.00;99.90
5210;DHT22;2624;48.048;11.706;2023-04-25T22:46:43;6.80;99.90
5210;DHT22;2624;48.048;11.706;2023-04-25T22:51:46;6.80;99.90
5210;DHT22;2624;48.048;11.706;2023-04-25T22:56:53;7.00;99.90
5210;DHT22;2624;48.048;11.706;2023-04-25T23:01:55;6.80;99.90
5210;DHT22;2624;48.048;11.706;2023-04-25T23:06:58;6.80;99.90
5210;DHT22;2624;48.048;11.706;2023-04-25T23:12:00;6.90;99.90
5210;DHT22;2624;48.048;11.706;2023-04-25T23:17:01;6.90;99.90
5210;DHT22;2624;48.048;11.706;2023-04-25T23:22:05;6.60;99.90
5210;DHT22;2624;48.048;11.706;2023-04-25T23:27:06;6.60;99.90
5210;DHT22;2624;48.048;11.706;2023-04-25T23:32:08;6.70;99.90
5210;DHT22;2624;48.048;11.706;2023-04-25T23:37:13;6.80;99.90
5210;DHT22;2624;48.048;11.706;2023-04-25T23:42:15;6.90;99.90
5210;DHT22;2624;48.048;11.706;2023-04-25T23:47:17;6.90;99.90
5210;DHT22;2624;48.048;11.706;2023-04-25T23:52:20;6.80;99.90
5210;DHT22;2624;48.048;11.706;2023-04-25T23:57:22;6.50;99.90
